createdAt,value
2023-02-01T00:00:11.608Z,100666.00
2023-02-01T00:02:41.771Z,100676.00
2023-02-01T00:05:12.214Z,100670.00
2023-02-01T00:07:40.358Z,100674.00
2023-02-01T00:10:09.693Z,100662.00
2023-02-01T00:12:37.483Z,100668.00
2023-02-01T00:15:05.639Z,100667.00
2023-02-01T00:17:33.312Z,100662.00
2023-02-01T00:20:01.005Z,100663.00
2023-02-01T00:22:30.122Z,100634.00
2023-02-01T00:24:57.835Z,100656.00
2023-02-01T00:27:25.510Z,100647.00
2023-02-01T00:29:53.687Z,100659.00
2023-02-01T00:32:21.369Z,100657.00
2023-02-01T00:34:49.062Z,100655.00
2023-02-01T00:37:16.720Z,100658.00
2023-02-01T00:39:45.776Z,100650.00
2023-02-01T00:42:13.433Z,100651.00
2023-02-01T00:44:41.105Z,100653.00
2023-02-01T00:47:08.772Z,100647.00
2023-02-01T00:49:36.413Z,100643.00
2023-02-01T00:52:04.287Z,100635.00
2023-02-01T00:54:32.220Z,100651.00
2023-02-01T00:57:01.367Z,100648.00
2023-02-01T00:59:29.050Z,100645.00
2023-02-01T01:01:56.747Z,100643.00
2023-02-01T01:04:24.479Z,100643.00
2023-02-01T01:06:52.320Z,100635.00
2023-02-01T01:09:20.002Z,100628.00
2023-02-01T01:11:47.684Z,100635.00
2023-02-01T01:14:16.695Z,100637.00
2023-02-01T01:16:44.597Z,100647.00
2023-02-01T01:19:12.963Z,100638.00
2023-02-01T01:21:40.660Z,100638.00
2023-02-01T01:24:08.319Z,100649.00
2023-02-01T01:26:36.019Z,100644.00
2023-02-01T01:29:03.841Z,100639.00
2023-02-01T01:31:33.501Z,100621.00
2023-02-01T01:34:01.823Z,100628.00
2023-02-01T01:36:31.012Z,100621.00
2023-02-01T01:38:58.814Z,100624.00
2023-02-01T01:41:30.684Z,100628.00
2023-02-01T01:44:00.115Z,100627.00
2023-02-01T01:46:29.485Z,100617.00
2023-02-01T01:49:07.494Z,100618.00
2023-02-01T01:51:39.748Z,100619.00
2023-02-01T01:54:14.589Z,100628.00
2023-02-01T01:56:43.359Z,100612.00
2023-02-01T01:59:11.662Z,100603.00
2023-02-01T02:01:39.367Z,100613.00
2023-02-01T02:04:08.603Z,100600.00
2023-02-01T02:06:42.659Z,100599.00
2023-02-01T02:09:10.376Z,100606.00
2023-02-01T02:11:38.283Z,100600.00
2023-02-01T02:14:07.776Z,100598.00
2023-02-01T02:16:57.410Z,100600.00
2023-02-01T02:19:57.597Z,100591.00
2023-02-01T02:22:53.864Z,100599.00
2023-02-01T02:26:01.260Z,100593.00
2023-02-01T02:29:13.773Z,100590.00
2023-02-01T02:32:13.805Z,100580.00
2023-02-01T02:34:48.527Z,100573.00
2023-02-01T02:37:26.169Z,100568.00
2023-02-01T02:40:01.732Z,100567.00
2023-02-01T02:42:50.980Z,100565.00
2023-02-01T02:45:41.439Z,100580.00
2023-02-01T02:48:16.199Z,100567.00
2023-02-01T02:51:09.114Z,100560.00
2023-02-01T02:53:59.785Z,100558.00
2023-02-01T02:56:46.533Z,100555.00
2023-02-01T02:59:35.362Z,100541.00
2023-02-01T03:02:20.901Z,100534.00
2023-02-01T03:04:48.600Z,100533.00
2023-02-01T03:08:04.898Z,100531.00
2023-02-01T03:10:39.891Z,100535.00
2023-02-01T03:13:10.442Z,100527.00
2023-02-01T03:15:41.977Z,100534.00
2023-02-01T03:18:17.155Z,100521.00
2023-02-01T03:20:48.531Z,100520.00
2023-02-01T03:23:20.660Z,100514.00
2023-02-01T03:25:50.539Z,100505.00
2023-02-01T03:28:22.425Z,100509.00
2023-02-01T03:30:51.908Z,100503.00
2023-02-01T03:33:24.890Z,100510.00
2023-02-01T03:36:01.162Z,100495.00
2023-02-01T03:38:34.511Z,100488.00
2023-02-01T03:41:10.650Z,100485.00
2023-02-01T03:43:48.692Z,100483.00
2023-02-01T03:46:22.792Z,100487.00
2023-02-01T03:48:53.300Z,100483.00
2023-02-01T03:51:22.888Z,100484.00
2023-02-01T03:53:54.763Z,100476.00
2023-02-01T03:56:24.051Z,100472.00
2023-02-01T03:59:00.358Z,100467.00
2023-02-01T04:01:30.293Z,100458.00
2023-02-01T04:03:58.768Z,100454.00
2023-02-01T04:06:27.274Z,100453.00
2023-02-01T04:08:56.503Z,100452.00
2023-02-01T04:11:24.344Z,100449.00
2023-02-01T04:13:52.267Z,100411.00
2023-02-01T04:16:20.085Z,100437.00
2023-02-01T04:18:47.834Z,100449.00
2023-02-01T04:21:15.654Z,100439.00
2023-02-01T04:23:43.492Z,100459.00
2023-02-01T04:26:12.710Z,100432.00
2023-02-01T04:28:40.474Z,100435.00
2023-02-01T04:31:08.399Z,100442.00
2023-02-01T04:33:36.434Z,100401.00
2023-02-01T04:36:04.172Z,100423.00
2023-02-01T04:38:33.167Z,100421.00
2023-02-01T04:41:01.291Z,100416.00
2023-02-01T04:43:30.473Z,100392.00
2023-02-01T04:45:58.271Z,100425.00
2023-02-01T04:48:26.191Z,100415.00
2023-02-01T04:50:54.147Z,100398.00
2023-02-01T04:53:21.876Z,100395.00
2023-02-01T04:55:51.117Z,100392.00
2023-02-01T04:58:18.933Z,100397.00
2023-02-01T05:00:51.204Z,100427.00
2023-02-01T05:03:33.218Z,100370.00
2023-02-01T05:06:01.404Z,100408.00
2023-02-01T05:08:29.836Z,100389.00
2023-02-01T05:10:57.875Z,100409.00
2023-02-01T05:13:43.312Z,100393.00
2023-02-01T05:16:12.916Z,100396.00
2023-02-01T05:18:40.817Z,100399.00
2023-02-01T05:21:08.700Z,100395.00
2023-02-01T05:23:57.336Z,100398.00
2023-02-01T05:26:26.439Z,100350.00
2023-02-01T05:28:56.767Z,100379.00
2023-02-01T05:31:41.485Z,100401.00
2023-02-01T05:37:33.502Z,100389.00
2023-02-01T05:40:18.730Z,100402.00
2023-02-01T05:42:47.285Z,100332.00
2023-02-01T05:45:32.369Z,100375.00
2023-02-01T05:48:03.510Z,100394.00
2023-02-01T05:50:35.298Z,100378.00
2023-02-01T05:53:06.574Z,100378.00
2023-02-01T05:55:34.911Z,100342.00
2023-02-01T05:58:02.911Z,100378.00
2023-02-01T06:03:25.234Z,100302.00
2023-02-01T06:05:58.671Z,100297.00
2023-02-01T06:08:33.147Z,100352.00
2023-02-01T06:11:10.950Z,100346.00
2023-02-01T06:13:46.309Z,100336.00
2023-02-01T06:16:16.610Z,100312.00
2023-02-01T06:18:55.626Z,100335.00
2023-02-01T06:21:26.803Z,100317.00
2023-02-01T06:23:59.001Z,100343.00
2023-02-01T06:26:27.410Z,100352.00
2023-02-01T06:28:56.286Z,100280.00
2023-02-01T06:31:26.321Z,100312.00
2023-02-01T06:34:05.376Z,100356.00
2023-02-01T06:36:39.743Z,100310.00
2023-02-01T06:39:08.609Z,100302.00
2023-02-01T06:41:43.106Z,100337.00
2023-02-01T06:44:28.944Z,100343.00
2023-02-01T06:47:06.752Z,100320.00
2023-02-01T06:49:43.470Z,100355.00
2023-02-01T06:52:22.516Z,100361.00
2023-02-01T06:54:50.768Z,100352.00
2023-02-01T06:57:20.970Z,100309.00
2023-02-01T06:59:55.238Z,100315.00
2023-02-01T07:02:31.509Z,100366.00
2023-02-01T07:05:04.438Z,100373.00
2023-02-01T07:07:32.312Z,100382.00
2023-02-01T07:10:08.183Z,100385.00
2023-02-01T07:12:39.005Z,100376.00
2023-02-01T07:15:09.205Z,100384.00
2023-02-01T07:17:44.199Z,100390.00
2023-02-01T07:20:14.235Z,100335.00
2023-02-01T07:22:42.426Z,100339.00
2023-02-01T07:25:12.684Z,100341.00
2023-02-01T07:27:42.717Z,100388.00
2023-02-01T07:30:14.202Z,100332.00
2023-02-01T07:33:05.197Z,100379.00
2023-02-01T07:35:34.919Z,100381.00
2023-02-01T07:38:02.845Z,100358.00
2023-02-01T07:40:34.555Z,100396.00
2023-02-01T07:43:08.801Z,100378.00
2023-02-01T07:46:05.556Z,100376.00
2023-02-01T07:48:47.901Z,100351.00
2023-02-01T07:51:41.934Z,100369.00
2023-02-01T07:57:02.978Z,100383.00
2023-02-01T08:00:09.651Z,100386.00
2023-02-01T08:05:41.868Z,100366.00
2023-02-01T08:08:18.548Z,100335.00
2023-02-01T08:13:42.248Z,100382.00
2023-02-01T08:16:14.408Z,100335.00
2023-02-01T08:19:01.849Z,100388.00
2023-02-01T08:21:41.045Z,100393.00
2023-02-01T08:24:29.454Z,100393.00
2023-02-01T08:27:09.958Z,100408.00
2023-02-01T08:30:32.583Z,100397.00
2023-02-01T08:33:27.852Z,100402.00
2023-02-01T08:36:06.218Z,100444.00
2023-02-01T08:38:48.478Z,100407.00
2023-02-01T08:41:26.940Z,100440.00
2023-02-01T08:44:00.329Z,100440.00
2023-02-01T08:46:29.025Z,100418.00
2023-02-01T08:48:57.376Z,100418.00
2023-02-01T08:51:27.162Z,100397.00
2023-02-01T08:54:00.523Z,100366.00
2023-02-01T08:56:30.512Z,100422.00
2023-02-01T08:58:58.827Z,100431.00
2023-02-01T09:01:27.133Z,100410.00
2023-02-01T09:03:55.594Z,100400.00
2023-02-01T09:06:23.971Z,100383.00
2023-02-01T09:09:11.822Z,100401.00
2023-02-01T09:11:41.474Z,100424.00
2023-02-01T09:14:11.591Z,100385.00
2023-02-01T09:16:39.795Z,100426.00
2023-02-01T09:19:24.879Z,100407.00
2023-02-01T09:21:57.507Z,100382.00
2023-02-01T09:24:27.864Z,100431.00
2023-02-01T09:26:57.377Z,100433.00
2023-02-01T09:29:25.510Z,100386.00
2023-02-01T09:32:03.313Z,100421.00
2023-02-01T09:34:36.269Z,100441.00
2023-02-01T09:37:04.843Z,100409.00
2023-02-01T09:39:33.236Z,100429.00
2023-02-01T09:42:14.687Z,100431.00
2023-02-01T09:44:59.139Z,100436.00
2023-02-01T09:47:28.643Z,100429.00
2023-02-01T09:50:02.037Z,100417.00
2023-02-01T09:52:40.842Z,100420.00
2023-02-01T09:55:20.287Z,100416.00
2023-02-01T09:57:58.487Z,100441.00
2023-02-01T10:00:29.463Z,100427.00
2023-02-01T10:02:58.170Z,100391.00
2023-02-01T10:05:41.269Z,100404.00
2023-02-01T10:08:20.325Z,100437.00
2023-02-01T10:10:51.179Z,100435.00
2023-02-01T10:13:36.057Z,100432.00
2023-02-01T10:16:17.757Z,100391.00
2023-02-01T10:19:07.148Z,100434.00
2023-02-01T10:21:47.039Z,100426.00
2023-02-01T10:24:41.936Z,100430.00
2023-02-01T10:27:17.584Z,100431.00
2023-02-01T10:29:50.628Z,100436.00
2023-02-01T10:32:21.881Z,100417.00
2023-02-01T10:34:54.146Z,100394.00
2023-02-01T10:37:29.499Z,100417.00
2023-02-01T10:39:59.745Z,100405.00
2023-02-01T10:42:29.512Z,100419.00
2023-02-01T10:45:03.204Z,100418.00
2023-02-01T10:47:31.006Z,100413.00
2023-02-01T10:50:16.307Z,100412.00
2023-02-01T10:52:48.731Z,100410.00
2023-02-01T10:55:34.803Z,100423.00
2023-02-01T10:58:04.303Z,100420.00
2023-02-01T11:00:45.191Z,100421.00
2023-02-01T11:03:41.692Z,100432.00
2023-02-01T11:06:25.446Z,100417.00
2023-02-01T11:08:55.080Z,100403.00
2023-02-01T11:11:23.706Z,100346.00
2023-02-01T11:13:57.720Z,100400.00
2023-02-01T11:16:36.234Z,100409.00
2023-02-01T11:19:04.922Z,100371.00
2023-02-01T11:21:34.352Z,100385.00
2023-02-01T11:24:04.707Z,100376.00
2023-02-01T11:26:37.375Z,100376.00
2023-02-01T11:29:17.551Z,100316.00
2023-02-01T11:31:48.311Z,100368.00
2023-02-01T11:37:05.378Z,100335.00
2023-02-01T11:39:35.149Z,100299.00
2023-02-01T11:42:06.578Z,100351.00
2023-02-01T11:44:38.015Z,100339.00
2023-02-01T11:47:23.803Z,100297.00
2023-02-01T11:49:54.953Z,100321.00
2023-02-01T11:52:47.144Z,100301.00
2023-02-01T11:55:31.705Z,100310.00
2023-02-01T11:58:17.535Z,100301.00
2023-02-01T12:01:08.935Z,100284.00
2023-02-01T12:04:09.448Z,100238.00
2023-02-01T12:06:47.676Z,100256.00
2023-02-01T12:10:03.059Z,100261.00
2023-02-01T12:13:47.586Z,100239.00
2023-02-01T12:16:04.273Z,100214.00
2023-02-01T12:19:01.992Z,100180.00
2023-02-01T12:28:33.861Z,100242.00
2023-02-01T12:31:35.451Z,100206.00
2023-02-01T12:34:21.409Z,100147.00
2023-02-01T12:37:16.535Z,100200.00
2023-02-01T12:41:10.794Z,100154.00
2023-02-01T12:43:44.699Z,100211.00
2023-02-01T12:46:24.059Z,100211.00
2023-02-01T12:49:02.543Z,100214.00
2023-02-01T12:56:00.374Z,100187.00
2023-02-01T12:59:07.782Z,100183.00
2023-02-01T13:05:10.876Z,100178.00
2023-02-01T13:08:35.275Z,100107.00
2023-02-01T13:11:09.796Z,100153.00
2023-02-01T13:13:46.980Z,100172.00
2023-02-01T13:16:19.703Z,100139.00
2023-02-01T13:18:52.940Z,100176.00
2023-02-01T13:21:26.008Z,100172.00
2023-02-01T13:23:54.905Z,100170.00
2023-02-01T13:26:24.022Z,100190.00
2023-02-01T13:28:55.698Z,100193.00
2023-02-01T13:31:49.958Z,100200.00
2023-02-01T13:34:59.701Z,100242.00
2023-02-01T13:37:56.704Z,100292.00
2023-02-01T13:40:38.028Z,100305.00
2023-02-01T13:43:12.877Z,100247.00
2023-02-01T13:45:47.243Z,100241.00
2023-02-01T13:48:28.696Z,100271.00
2023-02-01T13:50:58.989Z,100288.00
2023-02-01T13:53:31.128Z,100290.00
2023-02-01T13:56:02.496Z,100288.00
2023-02-01T13:58:37.302Z,100286.00
2023-02-01T14:01:38.065Z,100288.00
2023-02-01T14:04:07.628Z,100263.00
2023-02-01T14:06:42.123Z,100268.00
2023-02-01T14:09:20.545Z,100271.00
2023-02-01T14:11:50.860Z,100275.00
2023-02-01T14:14:51.441Z,100286.00
2023-02-01T14:17:37.983Z,100286.00
2023-02-01T14:20:52.144Z,100293.00
2023-02-01T14:23:25.793Z,100294.00
2023-02-01T14:26:09.773Z,100285.00
2023-02-01T14:28:41.706Z,100306.00
2023-02-01T14:31:36.418Z,100304.00
2023-02-01T14:34:15.282Z,100316.00
2023-02-01T14:36:49.810Z,100324.00
2023-02-01T14:39:31.147Z,100336.00
2023-02-01T14:42:03.223Z,100339.00
2023-02-01T14:44:37.048Z,100357.00
2023-02-01T14:47:11.862Z,100343.00
2023-02-01T14:49:49.349Z,100341.00
2023-02-01T14:52:21.102Z,100344.00
2023-02-01T14:54:54.255Z,100337.00
2023-02-01T14:57:25.409Z,100335.00
2023-02-01T15:00:01.421Z,100341.00
2023-02-01T15:02:32.713Z,100346.00
2023-02-01T15:05:00.383Z,100356.00
2023-02-01T15:07:30.621Z,100345.00
2023-02-01T15:10:00.093Z,100356.00
2023-02-01T15:12:32.659Z,100359.00
2023-02-01T15:15:17.976Z,100342.00
2023-02-01T15:17:54.073Z,100348.00
2023-02-01T15:20:23.846Z,100349.00
2023-02-01T15:22:57.013Z,100354.00
2023-02-01T15:25:27.079Z,100350.00
2023-02-01T15:27:55.189Z,100348.00
2023-02-01T15:30:25.351Z,100352.00
2023-02-01T15:33:07.865Z,100364.00
2023-02-01T15:35:38.953Z,100352.00
2023-02-01T15:38:31.709Z,100338.00
2023-02-01T15:41:02.194Z,100359.00
2023-02-01T15:43:33.317Z,100355.00
2023-02-01T15:46:03.377Z,100359.00
2023-02-01T15:48:37.723Z,100343.00
2023-02-01T15:51:06.702Z,100355.00
2023-02-01T15:53:35.107Z,100349.00
2023-02-01T15:56:05.805Z,100349.00
2023-02-01T15:58:34.345Z,100352.00
2023-02-01T16:01:05.655Z,100347.00
2023-02-01T16:03:40.306Z,100349.00
2023-02-01T16:06:10.779Z,100350.00
2023-02-01T16:08:39.843Z,100341.00
2023-02-01T16:11:24.750Z,100343.00
2023-02-01T16:13:52.478Z,100341.00
2023-02-01T16:16:20.158Z,100354.00
2023-02-01T16:18:49.179Z,100346.00
2023-02-01T16:21:16.832Z,100339.00
2023-02-01T16:23:44.524Z,100342.00
2023-02-01T16:26:12.861Z,100344.00
2023-02-01T16:28:41.043Z,100351.00
2023-02-01T16:31:17.890Z,100351.00
2023-02-01T16:33:45.667Z,100341.00
2023-02-01T16:36:15.043Z,100354.00
2023-02-01T16:38:42.896Z,100350.00
2023-02-01T16:41:14.696Z,100345.00
2023-02-01T16:43:42.961Z,100352.00
2023-02-01T16:46:17.393Z,100353.00
2023-02-01T16:48:48.682Z,100358.00
2023-02-01T16:51:18.222Z,100354.00
2023-02-01T16:53:54.327Z,100352.00
2023-02-01T16:56:24.528Z,100356.00
2023-02-01T16:58:52.483Z,100369.00
2023-02-01T17:01:21.143Z,100357.00
2023-02-01T17:03:49.168Z,100354.00
2023-02-01T17:06:20.129Z,100381.00
2023-02-01T17:08:51.813Z,100388.00
2023-02-01T17:11:19.943Z,100393.00
2023-02-01T17:13:47.903Z,100378.00
2023-02-01T17:16:23.681Z,100385.00
2023-02-01T17:18:56.980Z,100387.00
2023-02-01T17:21:27.528Z,100398.00
2023-02-01T17:23:55.504Z,100402.00
2023-02-01T17:26:23.201Z,100413.00
2023-02-01T17:28:51.018Z,100425.00
2023-02-01T17:31:18.884Z,100439.00
2023-02-01T17:33:47.178Z,100425.00
2023-02-01T17:36:17.985Z,100429.00
2023-02-01T17:38:53.838Z,100425.00
2023-02-01T17:41:27.804Z,100415.00
2023-02-01T17:43:55.698Z,100409.00
2023-02-01T17:46:27.105Z,100423.00
2023-02-01T17:48:55.480Z,100397.00
2023-02-01T17:51:24.885Z,100398.00
2023-02-01T17:53:54.166Z,100407.00
2023-02-01T17:56:23.829Z,100414.00
2023-02-01T17:58:52.150Z,100427.00
2023-02-01T18:01:21.344Z,100435.00
2023-02-01T18:03:49.405Z,100427.00
2023-02-01T18:06:18.998Z,100418.00
2023-02-01T18:08:47.048Z,100400.00
2023-02-01T18:11:18.464Z,100414.00
2023-02-01T18:13:46.725Z,100410.00
2023-02-01T18:16:19.872Z,100401.00
2023-02-01T18:18:48.309Z,100407.00
2023-02-01T18:21:17.475Z,100414.00
2023-02-01T18:23:45.270Z,100435.00
2023-02-01T18:26:14.220Z,100442.00
2023-02-01T18:28:43.319Z,100452.00
2023-02-01T18:31:22.983Z,100436.00
2023-02-01T18:33:51.464Z,100431.00
2023-02-01T18:36:19.672Z,100426.00
2023-02-01T18:38:47.704Z,100425.00
2023-02-01T18:41:16.767Z,100430.00
2023-02-01T18:43:45.772Z,100426.00
2023-02-01T18:46:14.384Z,100425.00
2023-02-01T18:48:42.917Z,100424.00
2023-02-01T18:51:12.341Z,100402.00
2023-02-01T18:53:40.340Z,100427.00
2023-02-01T18:56:08.819Z,100422.00
2023-02-01T18:58:36.488Z,100425.00
2023-02-01T19:01:08.824Z,100429.00
2023-02-01T19:03:40.336Z,100417.00
2023-02-01T19:06:11.207Z,100424.00
2023-02-01T19:08:38.921Z,100430.00
2023-02-01T19:11:07.314Z,100437.00
2023-02-01T19:13:34.963Z,100435.00
2023-02-01T19:16:08.999Z,100438.00
2023-02-01T19:18:38.061Z,100442.00
2023-02-01T19:21:07.498Z,100445.00
2023-02-01T19:23:35.353Z,100440.00
2023-02-01T19:26:03.092Z,100427.00
2023-02-01T19:28:30.763Z,100433.00
2023-02-01T19:31:05.956Z,100435.00
2023-02-01T19:33:35.311Z,100449.00
2023-02-01T19:36:05.801Z,100444.00
2023-02-01T19:38:33.770Z,100453.00
2023-02-01T19:41:01.459Z,100443.00
2023-02-01T19:43:29.489Z,100456.00
2023-02-01T19:45:57.393Z,100454.00
2023-02-01T19:48:25.182Z,100459.00
2023-02-01T19:50:54.240Z,100439.00
2023-02-01T19:53:24.667Z,100465.00
2023-02-01T19:55:52.394Z,100448.00
2023-02-01T19:58:20.057Z,100449.00
2023-02-01T20:00:46.939Z,100435.00
2023-02-01T20:03:14.571Z,100442.00
2023-02-01T20:05:42.961Z,100449.00
2023-02-01T20:08:11.970Z,100453.00
2023-02-01T20:10:43.731Z,100466.00
2023-02-01T20:13:11.616Z,100452.00
2023-02-01T20:15:41.672Z,100459.00
2023-02-01T20:18:09.989Z,100473.00
2023-02-01T20:20:37.676Z,100463.00
2023-02-01T20:23:06.319Z,100476.00
2023-02-01T20:25:37.621Z,100486.00
2023-02-01T20:28:05.638Z,100481.00
2023-02-01T20:30:33.672Z,100487.00
2023-02-01T20:33:01.386Z,100503.00
2023-02-01T20:35:29.084Z,100496.00
2023-02-01T20:37:59.068Z,100502.00
2023-02-01T20:40:26.760Z,100509.00
2023-02-01T20:42:58.059Z,100503.00
2023-02-01T20:45:27.150Z,100487.00
2023-02-01T20:47:54.896Z,100509.00
2023-02-01T20:50:22.898Z,100501.00
2023-02-01T20:52:50.633Z,100499.00
2023-02-01T20:55:18.472Z,100501.00
2023-02-01T20:57:46.253Z,100503.00
2023-02-01T21:00:16.054Z,100496.00
2023-02-01T21:02:43.759Z,100505.00
2023-02-01T21:05:11.454Z,100516.00
2023-02-01T21:07:39.465Z,100525.00
2023-02-01T21:10:08.284Z,100510.00
2023-02-01T21:12:36.203Z,100542.00
2023-02-01T21:15:05.242Z,100539.00
2023-02-01T21:17:34.809Z,100534.00
2023-02-01T21:20:02.609Z,100538.00
2023-02-01T21:22:30.300Z,100529.00
2023-02-01T21:24:58.048Z,100528.00
2023-02-01T21:27:26.022Z,100530.00
2023-02-01T21:29:53.836Z,100536.00
2023-02-01T21:32:21.598Z,100530.00
2023-02-01T21:34:50.694Z,100528.00
2023-02-01T21:37:18.410Z,100532.00
2023-02-01T21:39:46.181Z,100526.00
2023-02-01T21:42:18.460Z,100523.00
2023-02-01T21:44:47.466Z,100529.00
2023-02-01T21:47:16.619Z,100532.00
2023-02-01T21:49:44.670Z,100526.00
2023-02-01T21:52:14.891Z,100529.00
2023-02-01T21:54:43.470Z,100537.00
2023-02-01T21:57:11.995Z,100536.00
2023-02-01T21:59:40.099Z,100544.00
2023-02-01T22:02:08.316Z,100539.00
2023-02-01T22:04:37.047Z,100534.00
2023-02-01T22:07:04.831Z,100543.00
2023-02-01T22:09:34.076Z,100540.00
2023-02-01T22:12:01.963Z,100529.00
2023-02-01T22:14:29.936Z,100536.00
2023-02-01T22:16:57.888Z,100553.00
2023-02-01T22:19:25.968Z,100552.00
2023-02-01T22:21:53.873Z,100562.00
2023-02-01T22:24:22.053Z,100566.00
2023-02-01T22:26:51.622Z,100560.00
2023-02-01T22:29:20.175Z,100558.00
2023-02-01T22:31:48.452Z,100580.00
2023-02-01T22:34:16.639Z,100573.00
2023-02-01T22:36:44.589Z,100575.00
2023-02-01T22:39:12.556Z,100563.00
2023-02-01T22:41:40.315Z,100551.00
2023-02-01T22:44:09.661Z,100560.00
2023-02-01T22:46:37.779Z,100555.00
2023-02-01T22:49:05.673Z,100571.00
2023-02-01T22:51:34.396Z,100576.00
2023-02-01T22:54:02.307Z,100567.00
2023-02-01T22:56:31.643Z,100569.00
2023-02-01T22:59:01.215Z,100563.00
2023-02-01T23:01:30.761Z,100556.00
2023-02-01T23:03:59.490Z,100572.00
2023-02-01T23:06:28.031Z,100577.00
2023-02-01T23:08:57.272Z,100570.00
2023-02-01T23:11:26.228Z,100574.00
2023-02-01T23:13:54.614Z,100580.00
2023-02-01T23:16:23.161Z,100572.00
2023-02-01T23:18:52.583Z,100576.00
2023-02-01T23:21:22.358Z,100580.00
2023-02-01T23:23:52.018Z,100605.00
2023-02-01T23:26:21.286Z,100593.00
2023-02-01T23:28:50.855Z,100595.00
2023-02-01T23:31:19.009Z,100586.00
2023-02-01T23:33:49.038Z,100593.00
2023-02-01T23:36:18.366Z,100596.00
2023-02-01T23:38:47.316Z,100594.00
2023-02-01T23:41:16.801Z,100583.00
2023-02-01T23:44:00.590Z,100591.00
2023-02-01T23:46:31.587Z,100572.00
2023-02-01T23:49:00.786Z,100594.00
2023-02-01T23:51:31.143Z,100610.00
2023-02-01T23:53:59.762Z,100600.00
2023-02-01T23:56:31.333Z,100590.00
2023-02-01T23:58:59.403Z,100594.00
